sensor_id;sensor_type;location;lat;lon;timestamp;P1;P2;P0
60245;PMS5003;46107;53.356;-1.524;2023-05-07T00:00:04;27;24;
60245;PMS5003;46107;53.356;-1.524;2023-05-07T00:02:33;28;24;
60245;PMS5003;46107;53.356;-1.524;2023-05-07T00:05:01;30;25;
60245;PMS5003;46107;53.356;-1.524;2023-05-07T00:07:28;29;27;
60245;PMS5003;46107;53.356;-1.524;2023-05-07T00:09:56;31;28;
60245;PMS5003;46107;53.356;-1.524;2023-05-07T00:12:23;31;25;
60245;PMS5003;46107;53.356;-1.524;2023-05-07T00:14:50;35;28;
60245;PMS5003;46107;53.356;-1.524;2023-05-07T00:17:18;31;27;
60245;PMS5003;46107;53.356;-1.524;2023-05-07T00:19:46;38;32;
60245;PMS5003;46107;53.356;-1.524;2023-05-07T00:22:13;26;21;
60245;PMS5003;46107;53.356;-1.524;2023-05-07T00:24:41;28;26;
60245;PMS5003;46107;53.356;-1.524;2023-05-07T00:27:08;31;29;
60245;PMS5003;46107;53.356;-1.524;2023-05-07T00:29:35;30;26;
60245;PMS5003;46107;53.356;-1.524;2023-05-07T00:32:03;29;26;
60245;PMS5003;46107;53.356;-1.524;2023-05-07T00:34:32;28;27;
60245;PMS5003;46107;53.356;-1.524;2023-05-07T00:36:59;36;29;
60245;PMS5003;46107;53.356;-1.524;2023-05-07T00:39:27;33;26;
60245;PMS5003;46107;53.356;-1.524;2023-05-07T00:41:55;33;29;
60245;PMS5003;46107;53.356;-1.524;2023-05-07T00:44:23;37;32;
60245;PMS5003;46107;53.356;-1.524;2023-05-07T00:46:51;30;27;
60245;PMS5003;46107;53.356;-1.524;2023-05-07T00:49:19;25;20;
60245;PMS5003;46107;53.356;-1.524;2023-05-07T00:51:47;28;24;
60245;PMS5003;46107;53.356;-1.524;2023-05-07T00:54:16;30;28;
60245;PMS5003;46107;53.356;-1.524;2023-05-07T00:56:44;28;24;
60245;PMS5003;46107;53.356;-1.524;2023-05-07T00:59:11;34;27;
60245;PMS5003;46107;53.356;-1.524;2023-05-07T01:01:39;33;27;
60245;PMS5003;46107;53.356;-1.524;2023-05-07T01:04:06;29;24;
60245;PMS5003;46107;53.356;-1.524;2023-05-07T01:06:34;25;25;
60245;PMS5003;46107;53.356;-1.524;2023-05-07T01:09:02;22;19;
60245;PMS5003;46107;53.356;-1.524;2023-05-07T01:11:31;30;26;
60245;PMS5003;46107;53.356;-1.524;2023-05-07T01:13:59;25;23;
60245;PMS5003;46107;53.356;-1.524;2023-05-07T01:16:27;29;26;
60245;PMS5003;46107;53.356;-1.524;2023-05-07T01:18:54;25;25;
60245;PMS5003;46107;53.356;-1.524;2023-05-07T01:21:28;30;26;
60245;PMS5003;46107;53.356;-1.524;2023-05-07T01:23:59;26;24;
60245;PMS5003;46107;53.356;-1.524;2023-05-07T01:26:28;27;22;
60245;PMS5003;46107;53.356;-1.524;2023-05-07T01:28:55;29;19;
60245;PMS5003;46107;53.356;-1.524;2023-05-07T01:31:23;24;21;
60245;PMS5003;46107;53.356;-1.524;2023-05-07T01:33:51;21;21;
60245;PMS5003;46107;53.356;-1.524;2023-05-07T01:36:20;26;22;
60245;PMS5003;46107;53.356;-1.524;2023-05-07T01:38:49;26;23;
60245;PMS5003;46107;53.356;-1.524;2023-05-07T01:41:17;24;21;
60245;PMS5003;46107;53.356;-1.524;2023-05-07T01:43:45;20;17;
60245;PMS5003;46107;53.356;-1.524;2023-05-07T01:46:16;22;19;
60245;PMS5003;46107;53.356;-1.524;2023-05-07T01:48:45;25;24;
60245;PMS5003;46107;53.356;-1.524;2023-05-07T01:51:13;22;21;
60245;PMS5003;46107;53.356;-1.524;2023-05-07T01:53:41;26;21;
60245;PMS5003;46107;53.356;-1.524;2023-05-07T01:56:09;21;18;
60245;PMS5003;46107;53.356;-1.524;2023-05-07T01:58:36;23;23;
60245;PMS5003;46107;53.356;-1.524;2023-05-07T02:01:05;22;21;
60245;PMS5003;46107;53.356;-1.524;2023-05-07T02:03:32;24;19;
60245;PMS5003;46107;53.356;-1.524;2023-05-07T02:05:59;30;26;
60245;PMS5003;46107;53.356;-1.524;2023-05-07T02:08:27;32;27;
60245;PMS5003;46107;53.356;-1.524;2023-05-07T02:10:54;27;21;
60245;PMS5003;46107;53.356;-1.524;2023-05-07T02:13:21;24;24;
60245;PMS5003;46107;53.356;-1.524;2023-05-07T02:15:49;26;18;
60245;PMS5003;46107;53.356;-1.524;2023-05-07T02:18:16;24;20;
60245;PMS5003;46107;53.356;-1.524;2023-05-07T02:20:43;21;20;
60245;PMS5003;46107;53.356;-1.524;2023-05-07T02:23:11;26;25;
60245;PMS5003;46107;53.356;-1.524;2023-05-07T02:25:39;25;24;
60245;PMS5003;46107;53.356;-1.524;2023-05-07T02:28:06;27;25;
60245;PMS5003;46107;53.356;-1.524;2023-05-07T02:30:34;22;21;
60245;PMS5003;46107;53.356;-1.524;2023-05-07T02:33:01;24;21;
60245;PMS5003;46107;53.356;-1.524;2023-05-07T02:35:29;27;26;
60245;PMS5003;46107;53.356;-1.524;2023-05-07T02:37:57;25;22;
60245;PMS5003;46107;53.356;-1.524;2023-05-07T02:40:24;20;18;
60245;PMS5003;46107;53.356;-1.524;2023-05-07T02:42:52;27;23;
60245;PMS5003;46107;53.356;-1.524;2023-05-07T02:45:20;26;22;
60245;PMS5003;46107;53.356;-1.524;2023-05-07T02:47:48;24;21;
60245;PMS5003;46107;53.356;-1.524;2023-05-07T02:50:15;22;18;
60245;PMS5003;46107;53.356;-1.524;2023-05-07T02:52:43;18;18;
60245;PMS5003;46107;53.356;-1.524;2023-05-07T02:55:11;22;19;
60245;PMS5003;46107;53.356;-1.524;2023-05-07T02:57:38;24;22;
60245;PMS5003;46107;53.356;-1.524;2023-05-07T03:00:14;25;18;
60245;PMS5003;46107;53.356;-1.524;2023-05-07T03:02:43;21;18;
60245;PMS5003;46107;53.356;-1.524;2023-05-07T03:05:11;17;15;
60245;PMS5003;46107;53.356;-1.524;2023-05-07T03:07:38;22;17;
60245;PMS5003;46107;53.356;-1.524;2023-05-07T03:10:06;17;16;
60245;PMS5003;46107;53.356;-1.524;2023-05-07T03:12:34;19;18;
60245;PMS5003;46107;53.356;-1.524;2023-05-07T03:15:02;15;13;
60245;PMS5003;46107;53.356;-1.524;2023-05-07T03:17:31;21;18;
60245;PMS5003;46107;53.356;-1.524;2023-05-07T03:19:59;21;18;
60245;PMS5003;46107;53.356;-1.524;2023-05-07T03:22:26;18;16;
60245;PMS5003;46107;53.356;-1.524;2023-05-07T03:24:54;18;18;
60245;PMS5003;46107;53.356;-1.524;2023-05-07T03:27:21;17;15;
60245;PMS5003;46107;53.356;-1.524;2023-05-07T03:29:48;14;13;
60245;PMS5003;46107;53.356;-1.524;2023-05-07T03:32:16;18;16;
60245;PMS5003;46107;53.356;-1.524;2023-05-07T03:34:44;16;14;
60245;PMS5003;46107;53.356;-1.524;2023-05-07T03:37:11;19;16;
60245;PMS5003;46107;53.356;-1.524;2023-05-07T03:39:39;17;13;
60245;PMS5003;46107;53.356;-1.524;2023-05-07T03:42:07;26;18;
60245;PMS5003;46107;53.356;-1.524;2023-05-07T03:44:35;14;11;
60245;PMS5003;46107;53.356;-1.524;2023-05-07T03:47:03;13;12;
60245;PMS5003;46107;53.356;-1.524;2023-05-07T03:49:31;21;20;
60245;PMS5003;46107;53.356;-1.524;2023-05-07T03:51:58;16;14;
60245;PMS5003;46107;53.356;-1.524;2023-05-07T03:54:26;18;14;
60245;PMS5003;46107;53.356;-1.524;2023-05-07T03:56:54;23;19;
60245;PMS5003;46107;53.356;-1.524;2023-05-07T03:59:22;17;16;
60245;PMS5003;46107;53.356;-1.524;2023-05-07T04:01:49;18;15;
60245;PMS5003;46107;53.356;-1.524;2023-05-07T04:04:17;16;15;
60245;PMS5003;46107;53.356;-1.524;2023-05-07T04:06:45;13;13;
60245;PMS5003;46107;53.356;-1.524;2023-05-07T04:09:12;15;12;
60245;PMS5003;46107;53.356;-1.524;2023-05-07T04:11:40;14;14;
60245;PMS5003;46107;53.356;-1.524;2023-05-07T04:14:09;20;17;
60245;PMS5003;46107;53.356;-1.524;2023-05-07T04:16:36;14;13;
60245;PMS5003;46107;53.356;-1.524;2023-05-07T04:19:04;18;14;
60245;PMS5003;46107;53.356;-1.524;2023-05-07T04:21:32;16;16;
60245;PMS5003;46107;53.356;-1.524;2023-05-07T04:24:00;21;18;
60245;PMS5003;46107;53.356;-1.524;2023-05-07T04:26:30;21;20;
60245;PMS5003;46107;53.356;-1.524;2023-05-07T04:28:57;16;16;
60245;PMS5003;46107;53.356;-1.524;2023-05-07T04:31:25;20;19;
60245;PMS5003;46107;53.356;-1.524;2023-05-07T04:33:53;22;21;
60245;PMS5003;46107;53.356;-1.524;2023-05-07T04:36:20;22;20;
60245;PMS5003;46107;53.356;-1.524;2023-05-07T04:38:48;18;16;
60245;PMS5003;46107;53.356;-1.524;2023-05-07T04:41:16;13;13;
60245;PMS5003;46107;53.356;-1.524;2023-05-07T04:43:44;16;15;
60245;PMS5003;46107;53.356;-1.524;2023-05-07T04:46:11;8;7;
60245;PMS5003;46107;53.356;-1.524;2023-05-07T04:48:39;10;10;
60245;PMS5003;46107;53.356;-1.524;2023-05-07T04:51:06;8;8;
60245;PMS5003;46107;53.356;-1.524;2023-05-07T04:53:33;5;5;
60245;PMS5003;46107;53.356;-1.524;2023-05-07T04:56:01;9;9;
60245;PMS5003;46107;53.356;-1.524;2023-05-07T04:58:28;7;7;
60245;PMS5003;46107;53.356;-1.524;2023-05-07T05:01:06;8;7;
60245;PMS5003;46107;53.356;-1.524;2023-05-07T05:03:34;7;7;
60245;PMS5003;46107;53.356;-1.524;2023-05-07T05:06:02;8;7;
60245;PMS5003;46107;53.356;-1.524;2023-05-07T05:08:29;8;8;
60245;PMS5003;46107;53.356;-1.524;2023-05-07T05:10:57;8;7;
60245;PMS5003;46107;53.356;-1.524;2023-05-07T05:13:24;9;7;
60245;PMS5003;46107;53.356;-1.524;2023-05-07T05:15:52;15;10;
60245;PMS5003;46107;53.356;-1.524;2023-05-07T05:18:20;9;9;
60245;PMS5003;46107;53.356;-1.524;2023-05-07T05:20:47;13;12;
60245;PMS5003;46107;53.356;-1.524;2023-05-07T05:23:15;11;11;
60245;PMS5003;46107;53.356;-1.524;2023-05-07T05:25:42;10;8;
60245;PMS5003;46107;53.356;-1.524;2023-05-07T05:28:10;9;9;
60245;PMS5003;46107;53.356;-1.524;2023-05-07T05:30:37;11;8;
60245;PMS5003;46107;53.356;-1.524;2023-05-07T05:33:05;12;9;
60245;PMS5003;46107;53.356;-1.524;2023-05-07T05:35:33;9;9;
60245;PMS5003;46107;53.356;-1.524;2023-05-07T05:38:02;8;7;
60245;PMS5003;46107;53.356;-1.524;2023-05-07T05:40:29;10;9;
60245;PMS5003;46107;53.356;-1.524;2023-05-07T05:42:57;13;10;
60245;PMS5003;46107;53.356;-1.524;2023-05-07T05:45:24;12;9;
60245;PMS5003;46107;53.356;-1.524;2023-05-07T05:47:52;14;12;
60245;PMS5003;46107;53.356;-1.524;2023-05-07T05:50:19;14;12;
60245;PMS5003;46107;53.356;-1.524;2023-05-07T05:52:47;14;12;
60245;PMS5003;46107;53.356;-1.524;2023-05-07T05:55:14;21;19;
60245;PMS5003;46107;53.356;-1.524;2023-05-07T05:57:42;13;12;
60245;PMS5003;46107;53.356;-1.524;2023-05-07T06:00:10;13;13;
60245;PMS5003;46107;53.356;-1.524;2023-05-07T06:02:38;18;17;
60245;PMS5003;46107;53.356;-1.524;2023-05-07T06:05:06;22;17;
60245;PMS5003;46107;53.356;-1.524;2023-05-07T06:07:34;20;19;
60245;PMS5003;46107;53.356;-1.524;2023-05-07T06:10:01;18;18;
60245;PMS5003;46107;53.356;-1.524;2023-05-07T06:12:29;20;17;
60245;PMS5003;46107;53.356;-1.524;2023-05-07T06:14:56;21;17;
60245;PMS5003;46107;53.356;-1.524;2023-05-07T06:17:23;18;17;
60245;PMS5003;46107;53.356;-1.524;2023-05-07T06:19:51;18;17;
60245;PMS5003;46107;53.356;-1.524;2023-05-07T06:22:19;16;15;
60245;PMS5003;46107;53.356;-1.524;2023-05-07T06:24:47;21;19;
60245;PMS5003;46107;53.356;-1.524;2023-05-07T06:27:14;22;19;
60245;PMS5003;46107;53.356;-1.524;2023-05-07T06:29:42;16;15;
60245;PMS5003;46107;53.356;-1.524;2023-05-07T06:32:10;16;15;
60245;PMS5003;46107;53.356;-1.524;2023-05-07T06:34:38;16;16;
60245;PMS5003;46107;53.356;-1.524;2023-05-07T06:37:07;18;14;
60245;PMS5003;46107;53.356;-1.524;2023-05-07T06:39:35;16;16;
60245;PMS5003;46107;53.356;-1.524;2023-05-07T06:42:03;15;14;
60245;PMS5003;46107;53.356;-1.524;2023-05-07T06:44:30;14;13;
60245;PMS5003;46107;53.356;-1.524;2023-05-07T06:46:58;15;15;
60245;PMS5003;46107;53.356;-1.524;2023-05-07T06:49:26;16;16;
60245;PMS5003;46107;53.356;-1.524;2023-05-07T06:51:53;13;12;
60245;PMS5003;46107;53.356;-1.524;2023-05-07T06:54:21;15;13;
60245;PMS5003;46107;53.356;-1.524;2023-05-07T06:56:48;13;13;
60245;PMS5003;46107;53.356;-1.524;2023-05-07T06:59:16;20;16;
60245;PMS5003;46107;53.356;-1.524;2023-05-07T07:01:44;17;17;
60245;PMS5003;46107;53.356;-1.524;2023-05-07T07:04:11;15;15;
60245;PMS5003;46107;53.356;-1.524;2023-05-07T07:06:38;19;17;
60245;PMS5003;46107;53.356;-1.524;2023-05-07T07:09:07;20;17;
60245;PMS5003;46107;53.356;-1.524;2023-05-07T07:11:35;23;19;
60245;PMS5003;46107;53.356;-1.524;2023-05-07T07:14:02;18;17;
60245;PMS5003;46107;53.356;-1.524;2023-05-07T07:16:30;19;18;
60245;PMS5003;46107;53.356;-1.524;2023-05-07T07:18:58;19;19;
60245;PMS5003;46107;53.356;-1.524;2023-05-07T07:21:26;18;16;
60245;PMS5003;46107;53.356;-1.524;2023-05-07T07:23:54;19;15;
60245;PMS5003;46107;53.356;-1.524;2023-05-07T07:26:21;15;13;
60245;PMS5003;46107;53.356;-1.524;2023-05-07T07:28:49;21;17;
60245;PMS5003;46107;53.356;-1.524;2023-05-07T07:31:17;13;13;
60245;PMS5003;46107;53.356;-1.524;2023-05-07T07:33:45;13;13;
60245;PMS5003;46107;53.356;-1.524;2023-05-07T07:36:13;19;16;
60245;PMS5003;46107;53.356;-1.524;2023-05-07T07:38:40;19;16;
60245;PMS5003;46107;53.356;-1.524;2023-05-07T07:41:08;14;14;
60245;PMS5003;46107;53.356;-1.524;2023-05-07T07:43:36;15;14;
60245;PMS5003;46107;53.356;-1.524;2023-05-07T07:46:03;19;15;
60245;PMS5003;46107;53.356;-1.524;2023-05-07T07:48:32;17;16;
60245;PMS5003;46107;53.356;-1.524;2023-05-07T07:51:00;17;16;
60245;PMS5003;46107;53.356;-1.524;2023-05-07T07:53:28;17;17;
60245;PMS5003;46107;53.356;-1.524;2023-05-07T07:55:56;12;12;
60245;PMS5003;46107;53.356;-1.524;2023-05-07T07:58:23;16;14;
60245;PMS5003;46107;53.356;-1.524;2023-05-07T08:00:50;15;13;
60245;PMS5003;46107;53.356;-1.524;2023-05-07T08:03:18;16;15;
60245;PMS5003;46107;53.356;-1.524;2023-05-07T08:05:46;15;13;
60245;PMS5003;46107;53.356;-1.524;2023-05-07T08:08:14;12;11;
60245;PMS5003;46107;53.356;-1.524;2023-05-07T08:10:41;14;14;
60245;PMS5003;46107;53.356;-1.524;2023-05-07T08:13:08;15;14;
60245;PMS5003;46107;53.356;-1.524;2023-05-07T08:15:36;9;8;
60245;PMS5003;46107;53.356;-1.524;2023-05-07T08:18:04;11;11;
60245;PMS5003;46107;53.356;-1.524;2023-05-07T08:20:31;12;12;
60245;PMS5003;46107;53.356;-1.524;2023-05-07T08:23:05;15;15;
60245;PMS5003;46107;53.356;-1.524;2023-05-07T08:25:33;16;11;
60245;PMS5003;46107;53.356;-1.524;2023-05-07T08:28:00;12;12;
60245;PMS5003;46107;53.356;-1.524;2023-05-07T08:30:28;13;13;
60245;PMS5003;46107;53.356;-1.524;2023-05-07T08:32:55;15;13;
60245;PMS5003;46107;53.356;-1.524;2023-05-07T08:35:22;15;13;
60245;PMS5003;46107;53.356;-1.524;2023-05-07T08:37:50;13;12;
60245;PMS5003;46107;53.356;-1.524;2023-05-07T08:40:17;8;7;
60245;PMS5003;46107;53.356;-1.524;2023-05-07T08:42:48;8;8;
60245;PMS5003;46107;53.356;-1.524;2023-05-07T08:45:18;7;7;
60245;PMS5003;46107;53.356;-1.524;2023-05-07T08:47:47;10;9;
60245;PMS5003;46107;53.356;-1.524;2023-05-07T08:50:18;8;8;
60245;PMS5003;46107;53.356;-1.524;2023-05-07T08:52:47;10;9;
60245;PMS5003;46107;53.356;-1.524;2023-05-07T08:55:15;10;10;
60245;PMS5003;46107;53.356;-1.524;2023-05-07T08:57:43;8;7;
60245;PMS5003;46107;53.356;-1.524;2023-05-07T09:00:11;9;9;
60245;PMS5003;46107;53.356;-1.524;2023-05-07T09:02:39;10;8;
60245;PMS5003;46107;53.356;-1.524;2023-05-07T09:05:07;6;6;
60245;PMS5003;46107;53.356;-1.524;2023-05-07T09:07:35;9;9;
60245;PMS5003;46107;53.356;-1.524;2023-05-07T09:10:03;11;10;
60245;PMS5003;46107;53.356;-1.524;2023-05-07T09:12:32;9;8;
60245;PMS5003;46107;53.356;-1.524;2023-05-07T09:15:00;12;11;
60245;PMS5003;46107;53.356;-1.524;2023-05-07T09:17:28;12;11;
60245;PMS5003;46107;53.356;-1.524;2023-05-07T09:19:55;12;9;
60245;PMS5003;46107;53.356;-1.524;2023-05-07T09:22:22;11;11;
60245;PMS5003;46107;53.356;-1.524;2023-05-07T09:24:50;10;10;
60245;PMS5003;46107;53.356;-1.524;2023-05-07T09:27:17;10;8;
60245;PMS5003;46107;53.356;-1.524;2023-05-07T09:29:50;12;11;
60245;PMS5003;46107;53.356;-1.524;2023-05-07T09:32:19;17;14;
60245;PMS5003;46107;53.356;-1.524;2023-05-07T09:34:47;11;10;
60245;PMS5003;46107;53.356;-1.524;2023-05-07T09:37:15;20;17;
60245;PMS5003;46107;53.356;-1.524;2023-05-07T09:39:42;16;13;
60245;PMS5003;46107;53.356;-1.524;2023-05-07T09:42:11;11;11;
60245;PMS5003;46107;53.356;-1.524;2023-05-07T09:44:39;12;12;
60245;PMS5003;46107;53.356;-1.524;2023-05-07T09:47:08;17;14;
60245;PMS5003;46107;53.356;-1.524;2023-05-07T09:49:37;14;13;
60245;PMS5003;46107;53.356;-1.524;2023-05-07T09:52:07;11;10;
60245;PMS5003;46107;53.356;-1.524;2023-05-07T09:54:35;13;11;
60245;PMS5003;46107;53.356;-1.524;2023-05-07T09:57:04;11;9;
60245;PMS5003;46107;53.356;-1.524;2023-05-07T09:59:33;9;8;
60245;PMS5003;46107;53.356;-1.524;2023-05-07T10:02:03;10;10;
60245;PMS5003;46107;53.356;-1.524;2023-05-07T10:04:36;8;8;
60245;PMS5003;46107;53.356;-1.524;2023-05-07T10:07:04;10;9;
60245;PMS5003;46107;53.356;-1.524;2023-05-07T10:09:33;12;10;
60245;PMS5003;46107;53.356;-1.524;2023-05-07T10:12:03;12;10;
60245;PMS5003;46107;53.356;-1.524;2023-05-07T10:14:32;8;8;
60245;PMS5003;46107;53.356;-1.524;2023-05-07T10:17:01;10;9;
60245;PMS5003;46107;53.356;-1.524;2023-05-07T10:19:30;7;7;
60245;PMS5003;46107;53.356;-1.524;2023-05-07T10:21:59;7;7;
60245;PMS5003;46107;53.356;-1.524;2023-05-07T10:24:32;7;7;
60245;PMS5003;46107;53.356;-1.524;2023-05-07T10:27:00;12;10;
60245;PMS5003;46107;53.356;-1.524;2023-05-07T10:29:33;14;13;
60245;PMS5003;46107;53.356;-1.524;2023-05-07T10:32:15;9;9;
60245;PMS5003;46107;53.356;-1.524;2023-05-07T10:34:56;8;8;
60245;PMS5003;46107;53.356;-1.524;2023-05-07T10:37:26;8;8;
60245;PMS5003;46107;53.356;-1.524;2023-05-07T10:39:54;12;10;
60245;PMS5003;46107;53.356;-1.524;2023-05-07T10:42:23;9;9;
60245;PMS5003;46107;53.356;-1.524;2023-05-07T10:44:50;8;8;
60245;PMS5003;46107;53.356;-1.524;2023-05-07T10:47:18;12;11;
60245;PMS5003;46107;53.356;-1.524;2023-05-07T10:52:15;12;12;
60245;PMS5003;46107;53.356;-1.524;2023-05-07T10:54:45;8;8;
60245;PMS5003;46107;53.356;-1.524;2023-05-07T10:57:32;8;8;
60245;PMS5003;46107;53.356;-1.524;2023-05-07T11:00:01;10;10;
60245;PMS5003;46107;53.356;-1.524;2023-05-07T11:03:34;10;8;
60245;PMS5003;46107;53.356;-1.524;2023-05-07T11:06:17;10;9;
60245;PMS5003;46107;53.356;-1.524;2023-05-07T11:08:53;10;9;
60245;PMS5003;46107;53.356;-1.524;2023-05-07T11:11:44;7;7;
60245;PMS5003;46107;53.356;-1.524;2023-05-07T11:14:12;9;8;
60245;PMS5003;46107;53.356;-1.524;2023-05-07T11:17:09;5;5;
60245;PMS5003;46107;53.356;-1.524;2023-05-07T11:19:53;7;7;
60245;PMS5003;46107;53.356;-1.524;2023-05-07T11:22:38;6;6;
60245;PMS5003;46107;53.356;-1.524;2023-05-07T11:25:06;8;8;
60245;PMS5003;46107;53.356;-1.524;2023-05-07T11:27:33;6;6;
60245;PMS5003;46107;53.356;-1.524;2023-05-07T11:30:01;8;8;
60245;PMS5003;46107;53.356;-1.524;2023-05-07T11:32:29;7;7;
60245;PMS5003;46107;53.356;-1.524;2023-05-07T11:34:59;4;4;
60245;PMS5003;46107;53.356;-1.524;2023-05-07T11:37:37;6;6;
60245;PMS5003;46107;53.356;-1.524;2023-05-07T11:40:08;6;6;
60245;PMS5003;46107;53.356;-1.524;2023-05-07T11:42:36;8;7;
60245;PMS5003;46107;53.356;-1.524;2023-05-07T11:45:06;5;5;
60245;PMS5003;46107;53.356;-1.524;2023-05-07T11:47:49;7;6;
60245;PMS5003;46107;53.356;-1.524;2023-05-07T11:50:17;7;7;
60245;PMS5003;46107;53.356;-1.524;2023-05-07T11:52:52;5;5;
60245;PMS5003;46107;53.356;-1.524;2023-05-07T11:55:20;8;7;
60245;PMS5003;46107;53.356;-1.524;2023-05-07T11:57:50;5;5;
60245;PMS5003;46107;53.356;-1.524;2023-05-07T12:00:25;5;4;
60245;PMS5003;46107;53.356;-1.524;2023-05-07T12:03:03;8;6;
60245;PMS5003;46107;53.356;-1.524;2023-05-07T12:05:31;6;6;
60245;PMS5003;46107;53.356;-1.524;2023-05-07T12:08:00;5;5;
60245;PMS5003;46107;53.356;-1.524;2023-05-07T12:10:28;7;5;
60245;PMS5003;46107;53.356;-1.524;2023-05-07T12:12:56;5;5;
60245;PMS5003;46107;53.356;-1.524;2023-05-07T12:15:23;5;5;
60245;PMS5003;46107;53.356;-1.524;2023-05-07T12:17:51;5;5;
60245;PMS5003;46107;53.356;-1.524;2023-05-07T12:20:19;5;5;
60245;PMS5003;46107;53.356;-1.524;2023-05-07T12:22:47;5;5;
60245;PMS5003;46107;53.356;-1.524;2023-05-07T12:25:18;6;6;
60245;PMS5003;46107;53.356;-1.524;2023-05-07T12:27:51;6;6;
60245;PMS5003;46107;53.356;-1.524;2023-05-07T12:30:19;4;4;
60245;PMS5003;46107;53.356;-1.524;2023-05-07T12:32:47;6;6;
60245;PMS5003;46107;53.356;-1.524;2023-05-07T12:35:25;6;6;
60245;PMS5003;46107;53.356;-1.524;2023-05-07T12:37:55;5;4;
60245;PMS5003;46107;53.356;-1.524;2023-05-07T12:40:37;5;5;
60245;PMS5003;46107;53.356;-1.524;2023-05-07T12:43:05;5;4;
60245;PMS5003;46107;53.356;-1.524;2023-05-07T12:45:36;6;5;
60245;PMS5003;46107;53.356;-1.524;2023-05-07T12:48:05;6;5;
60245;PMS5003;46107;53.356;-1.524;2023-05-07T12:50:33;9;5;
60245;PMS5003;46107;53.356;-1.524;2023-05-07T12:53:02;6;5;
60245;PMS5003;46107;53.356;-1.524;2023-05-07T12:55:31;7;6;
60245;PMS5003;46107;53.356;-1.524;2023-05-07T12:58:00;5;4;
60245;PMS5003;46107;53.356;-1.524;2023-05-07T13:00:36;5;5;
60245;PMS5003;46107;53.356;-1.524;2023-05-07T13:03:04;7;6;
60245;PMS5003;46107;53.356;-1.524;2023-05-07T13:05:33;7;5;
60245;PMS5003;46107;53.356;-1.524;2023-05-07T13:08:01;6;6;
60245;PMS5003;46107;53.356;-1.524;2023-05-07T13:10:29;8;7;
60245;PMS5003;46107;53.356;-1.524;2023-05-07T13:12:57;7;7;
60245;PMS5003;46107;53.356;-1.524;2023-05-07T13:15:25;8;5;
60245;PMS5003;46107;53.356;-1.524;2023-05-07T13:17:52;6;6;
60245;PMS5003;46107;53.356;-1.524;2023-05-07T13:20:19;7;6;
60245;PMS5003;46107;53.356;-1.524;2023-05-07T13:22:46;5;5;
60245;PMS5003;46107;53.356;-1.524;2023-05-07T13:25:14;5;5;
60245;PMS5003;46107;53.356;-1.524;2023-05-07T13:27:42;6;6;
60245;PMS5003;46107;53.356;-1.524;2023-05-07T13:30:09;5;5;
60245;PMS5003;46107;53.356;-1.524;2023-05-07T13:32:36;8;8;
60245;PMS5003;46107;53.356;-1.524;2023-05-07T13:35:05;7;7;
60245;PMS5003;46107;53.356;-1.524;2023-05-07T13:37:33;6;6;
60245;PMS5003;46107;53.356;-1.524;2023-05-07T13:40:01;6;5;
60245;PMS5003;46107;53.356;-1.524;2023-05-07T13:42:29;8;7;
60245;PMS5003;46107;53.356;-1.524;2023-05-07T13:44:57;7;7;
60245;PMS5003;46107;53.356;-1.524;2023-05-07T13:47:24;6;6;
60245;PMS5003;46107;53.356;-1.524;2023-05-07T13:49:53;7;6;
60245;PMS5003;46107;53.356;-1.524;2023-05-07T13:52:21;6;4;
60245;PMS5003;46107;53.356;-1.524;2023-05-07T13:54:49;7;5;
60245;PMS5003;46107;53.356;-1.524;2023-05-07T13:57:17;6;6;
60245;PMS5003;46107;53.356;-1.524;2023-05-07T13:59:44;6;6;
60245;PMS5003;46107;53.356;-1.524;2023-05-07T14:02:11;6;6;
60245;PMS5003;46107;53.356;-1.524;2023-05-07T14:04:44;6;6;
60245;PMS5003;46107;53.356;-1.524;2023-05-07T14:07:16;6;6;
60245;PMS5003;46107;53.356;-1.524;2023-05-07T14:09:44;5;5;
60245;PMS5003;46107;53.356;-1.524;2023-05-07T14:12:12;5;5;
60245;PMS5003;46107;53.356;-1.524;2023-05-07T14:14:39;6;5;
60245;PMS5003;46107;53.356;-1.524;2023-05-07T14:17:07;5;4;
60245;PMS5003;46107;53.356;-1.524;2023-05-07T14:19:35;6;3;
60245;PMS5003;46107;53.356;-1.524;2023-05-07T14:22:03;8;8;
60245;PMS5003;46107;53.356;-1.524;2023-05-07T14:24:30;5;5;
60245;PMS5003;46107;53.356;-1.524;2023-05-07T14:26:58;6;5;
60245;PMS5003;46107;53.356;-1.524;2023-05-07T14:29:26;5;5;
60245;PMS5003;46107;53.356;-1.524;2023-05-07T14:31:54;5;5;
60245;PMS5003;46107;53.356;-1.524;2023-05-07T14:34:22;7;6;
60245;PMS5003;46107;53.356;-1.524;2023-05-07T14:36:50;7;5;
60245;PMS5003;46107;53.356;-1.524;2023-05-07T14:39:17;5;5;
60245;PMS5003;46107;53.356;-1.524;2023-05-07T14:41:45;5;5;
60245;PMS5003;46107;53.356;-1.524;2023-05-07T14:44:13;7;7;
60245;PMS5003;46107;53.356;-1.524;2023-05-07T14:46:40;6;6;
60245;PMS5003;46107;53.356;-1.524;2023-05-07T14:49:08;5;5;
60245;PMS5003;46107;53.356;-1.524;2023-05-07T14:51:35;5;5;
60245;PMS5003;46107;53.356;-1.524;2023-05-07T14:54:03;6;6;
60245;PMS5003;46107;53.356;-1.524;2023-05-07T14:56:31;8;8;
60245;PMS5003;46107;53.356;-1.524;2023-05-07T14:58:58;7;7;
60245;PMS5003;46107;53.356;-1.524;2023-05-07T15:01:26;7;7;
60245;PMS5003;46107;53.356;-1.524;2023-05-07T15:03:53;9;8;
60245;PMS5003;46107;53.356;-1.524;2023-05-07T15:06:21;9;9;
60245;PMS5003;46107;53.356;-1.524;2023-05-07T15:08:49;9;9;
60245;PMS5003;46107;53.356;-1.524;2023-05-07T15:11:16;8;8;
60245;PMS5003;46107;53.356;-1.524;2023-05-07T15:13:44;10;8;
60245;PMS5003;46107;53.356;-1.524;2023-05-07T15:16:11;6;6;
60245;PMS5003;46107;53.356;-1.524;2023-05-07T15:18:41;10;9;
60245;PMS5003;46107;53.356;-1.524;2023-05-07T15:21:09;8;8;
60245;PMS5003;46107;53.356;-1.524;2023-05-07T15:23:37;9;9;
60245;PMS5003;46107;53.356;-1.524;2023-05-07T15:26:04;10;10;
60245;PMS5003;46107;53.356;-1.524;2023-05-07T15:28:32;14;10;
60245;PMS5003;46107;53.356;-1.524;2023-05-07T15:30:59;9;7;
60245;PMS5003;46107;53.356;-1.524;2023-05-07T15:33:27;11;10;
60245;PMS5003;46107;53.356;-1.524;2023-05-07T15:35:55;7;7;
60245;PMS5003;46107;53.356;-1.524;2023-05-07T15:38:22;10;10;
60245;PMS5003;46107;53.356;-1.524;2023-05-07T15:40:49;15;15;
60245;PMS5003;46107;53.356;-1.524;2023-05-07T15:43:17;14;14;
60245;PMS5003;46107;53.356;-1.524;2023-05-07T15:45:44;8;8;
60245;PMS5003;46107;53.356;-1.524;2023-05-07T15:48:12;9;9;
60245;PMS5003;46107;53.356;-1.524;2023-05-07T15:50:39;6;6;
60245;PMS5003;46107;53.356;-1.524;2023-05-07T15:53:07;5;5;
60245;PMS5003;46107;53.356;-1.524;2023-05-07T15:55:35;7;6;
60245;PMS5003;46107;53.356;-1.524;2023-05-07T15:58:02;7;7;
60245;PMS5003;46107;53.356;-1.524;2023-05-07T16:00:30;11;9;
60245;PMS5003;46107;53.356;-1.524;2023-05-07T16:02:57;8;8;
60245;PMS5003;46107;53.356;-1.524;2023-05-07T16:05:25;7;6;
60245;PMS5003;46107;53.356;-1.524;2023-05-07T16:07:53;9;8;
60245;PMS5003;46107;53.356;-1.524;2023-05-07T16:10:21;9;8;
60245;PMS5003;46107;53.356;-1.524;2023-05-07T16:12:48;5;5;
60245;PMS5003;46107;53.356;-1.524;2023-05-07T16:15:16;5;5;
60245;PMS5003;46107;53.356;-1.524;2023-05-07T16:17:45;5;5;
60245;PMS5003;46107;53.356;-1.524;2023-05-07T16:20:13;2;2;
60245;PMS5003;46107;53.356;-1.524;2023-05-07T16:22:41;6;5;
60245;PMS5003;46107;53.356;-1.524;2023-05-07T16:25:08;2;2;